Seven Seas Voyager — C6SW3 — position and weather

sailwx.info

Track history (hours):
 
Tides and Currents Weather Stations Pressure Air Temp Water Temp Dewpoint Dewpoint Depression Visibility Wind Speed Wind Dir Waves Ship Positions

Seven Seas Voyager

Last reported at 2019-Oct-18 17:00 UTC. Time now 2019-Oct-18 23:27 UTC.
Position N 41°00' E 028°54'.

Length 205 m; draft 7 m.

Type: Ship. MMSI: 31151000.

Wind from 050 at 10 knots

Barometer 1018.0 mb
Air temperature 20.0 ° C
Dewpoint 16.9 ° C

Date/timePositionNaut miles runAvg speedWind from/ knotsBaromVisibWave heightAir tempDewpointWater temp
2019-Oct-18 17:00N 41°00' E 028°54'135 5.9 050 / 101018.0 20.016.9
2019-Oct-17 18:14N 40°02' E 026°14'310.5
2019-Oct-17 17:59N 40°01' E 026°11'116 5.7
2019-Oct-16 21:43N 38°15' E 025°09'717.2
2019-Oct-16 21:19N 38°11' E 025°02'2720.1
2019-Oct-16 20:00N 37°54' E 024°36'1111.2 070 / 31017.0 21.014.7
2019-Oct-16 19:00N 37°48' E 024°24'2015.0 070 / 31017.0 21.014.7
2019-Oct-16 17:39N 37°35' E 024°04'316.2
2019-Oct-16 17:29N 37°35' E 024°01'816.2
2019-Oct-16 17:00N 37°37' E 023°51'815.3
2019-Oct-16 16:30N 37°40' E 023°43'816.0
2019-Oct-16 16:00N 37°47' E 023°38'714.9
2019-Oct-16 15:30N 37°55' E 023°37'2 3.0
2019-Oct-16 14:56N 37°56' E 023°38'0 0.0
2019-Oct-16 14:26N 37°56' E 023°38'0 0.0
2019-Oct-16 13:56N 37°56' E 023°38'0 0.0
2019-Oct-16 13:14N 37°56' E 023°38'0 0.0
2019-Oct-16 12:56N 37°56' E 023°38'0 0.0
2019-Oct-16 12:26N 37°56' E 023°38'0 0.0
2019-Oct-16 11:56N 37°56' E 023°38'0 0.0
2019-Oct-16 11:26N 37°56' E 023°38'0 0.0
2019-Oct-16 10:56N 37°56' E 023°38'0 0.0
2019-Oct-16 10:26N 37°56' E 023°38'0 0.0
2019-Oct-16 09:56N 37°56' E 023°38'0 0.0
2019-Oct-16 09:26N 37°56' E 023°38'0 0.0
2019-Oct-16 08:26N 37°56' E 023°38'0 0.0
2019-Oct-16 07:56N 37°56' E 023°38'0 0.0
2019-Oct-16 07:26N 37°56' E 023°38'0 0.0
2019-Oct-16 06:56N 37°56' E 023°38'0 0.0
2019-Oct-16 06:26N 37°56' E 023°38'0 0.0
2019-Oct-16 05:56N 37°56' E 023°38'0 0.0
2019-Oct-16 05:26N 37°56' E 023°38'0 0.0
2019-Oct-16 04:56N 37°56' E 023°38'0 0.0
2019-Oct-16 04:26N 37°56' E 023°38'0 0.0
2019-Oct-16 03:50N 37°56' E 023°38'0 0.0
2019-Oct-16 03:26N 37°56' E 023°38'0 0.0
2019-Oct-16 02:56N 37°56' E 023°38'0 0.0
2019-Oct-16 02:26N 37°56' E 023°38'0 0.0
2019-Oct-16 02:00N 37°56' E 023°38'1 2.2
2019-Oct-16 01:30N 37°56' E 023°36'5 9.8
2019-Oct-16 01:00N 37°51' E 023°39'612.1
2019-Oct-16 00:30N 37°46' E 023°42'611.7
2019-Oct-15 23:59N 37°40' E 023°46'612.0
2019-Oct-15 23:30N 37°38' E 023°52'44 9.8
2019-Oct-15 19:00N 38°06' E 024°36'919.9 330 / 131016.0 20.018.5
2019-Oct-15 18:33N 38°12' E 024°44'112.3
2019-Oct-15 18:29N 38°13' E 024°45'2 4.4
2019-Oct-15 18:00N 38°12' E 024°42'1040.5 090 / 131016.0 19.017.5
2019-Oct-15 17:44N 38°21' E 024°49'312.0
2019-Oct-15 17:30N 38°23' E 024°50'1211.9
2019-Oct-15 16:29N 38°34' E 024°58'911.9
2019-Oct-15 15:43N 38°43' E 025°02'6812.1
2019-Oct-15 10:06N 39°44' E 025°40'312.7
2019-Oct-15 09:54N 39°46' E 025°42'512.1
2019-Oct-15 09:30N 39°50' E 025°44'612.1
2019-Oct-15 09:00N 39°55' E 025°49'1011.8
2019-Oct-15 08:11N 40°00' E 025°60'512.1
2019-Oct-15 07:48N 40°01' E 026°06'7611.2
2019-Oct-15 01:03N 40°42' E 027°29'112.3
2019-Oct-15 00:57N 40°43' E 027°30'612.7
2019-Oct-15 00:30N 40°46' E 027°37'713.5
2019-Oct-15 00:00N 40°47' E 027°45'713.6
2019-Oct-14 23:30N 40°48' E 027°54'713.5
2019-Oct-14 23:00N 40°49' E 028°03'713.3
2019-Oct-14 22:29N 40°50' E 028°12'613.2
2019-Oct-14 22:00N 40°51' E 028°20'712.8
2019-Oct-14 21:30N 40°52' E 028°29'712.5
2019-Oct-14 20:56N 40°53' E 028°38'512.5
2019-Oct-14 20:30N 40°54' E 028°45'9 0.3
2019-Oct-13 18:00N 41°00' E 028°54'0 0.0 360 / 231024.0 21.014.7
2019-Oct-13 17:00N 41°00' E 028°54'4 0.8 360 / 231024.0 21.014.7
2019-Oct-13 12:13N 41°01' E 028°59'5 6.8
2019-Oct-13 11:31N 40°56' E 028°58'016.2
2019-Oct-13 11:30N 40°56' E 028°58'815.8
2019-Oct-13 11:00N 40°52' E 028°49'18213.0
2019-Oct-12 21:00N 39°00' E 025°42'1818.0 360 / 151023.0 20.015.3
2019-Oct-12 20:00N 38°42' E 025°42'68 3.7 360 / 151020.0 21.016.4
2019-Oct-12 01:45N 37°35' E 025°55'415.4
2019-Oct-12 01:30N 37°32' E 025°51'815.8
2019-Oct-12 00:58N 37°27' E 025°42'715.7
2019-Oct-12 00:30N 37°23' E 025°35'815.6
2019-Oct-12 00:00N 37°20' E 025°26'815.1
2019-Oct-11 23:30N 37°17' E 025°17'714.9
2019-Oct-11 23:00N 37°14' E 025°08'815.3
2019-Oct-11 22:30N 37°12' E 024°59'4216.6
2019-Oct-11 20:00N 36°54' E 024°12'1515.4 360 / 181020.0 22.019.0
2019-Oct-11 19:00N 36°42' E 024°00'33215.1 050 / 181019.0 22.019.0
2019-Oct-10 21:00N 37°06' E 017°06'1615.6 140 / 51017.0 23.018.5
2019-Oct-10 20:00N 37°12' E 016°48'1513.6 140 / 31017.0 22.019.0
2019-Oct-10 18:54N 37°15' E 016°30'615.5
2019-Oct-10 18:30N 37°16' E 016°22'918.0
2019-Oct-10 18:00N 37°12' E 016°12'731.6 070 / 51016.0 22.019.0
2019-Oct-10 17:46N 37°18' E 016°08'415.8
2019-Oct-10 17:30N 37°19' E 016°03'714.5
2019-Oct-10 17:01N 37°20' E 015°54'815.9
2019-Oct-10 16:30N 37°22' E 015°44'815.6
2019-Oct-10 15:59N 37°23' E 015°34'815.5
2019-Oct-10 15:29N 37°25' E 015°24'19 1.8
2019-Oct-10 05:00N 37°43' E 015°20'1015.4
2019-Oct-10 04:21N 37°52' E 015°25'616.3
2019-Oct-10 03:59N 37°58' E 015°28'715.5
2019-Oct-10 03:30N 38°04' E 015°32'815.3
2019-Oct-10 03:00N 38°11' E 015°36'612.7
2019-Oct-10 02:30N 38°17' E 015°40'815.5
2019-Oct-10 02:00N 38°24' E 015°36'815.8
2019-Oct-10 01:30N 38°30' E 015°31'815.6
2019-Oct-10 01:00N 38°38' E 015°28'815.4
2019-Oct-10 00:30N 38°45' E 015°23'815.4
2019-Oct-10 00:00N 38°52' E 015°18'815.4
2019-Oct-09 23:30N 38°58' E 015°14'3714.9
2019-Oct-09 21:00N 39°30' E 014°48'1515.1 130 / 171017.0 22.019.0
2019-Oct-09 20:00N 39°42' E 014°36'1522.2 080 / 81017.010.8 22.019.0
2019-Oct-09 19:18N 39°57' E 014°33'929.5
2019-Oct-09 19:00N 40°06' E 014°30'42552.4 060 / 81017.010.8 21.018.0
2019-Oct-09 18:59N 40°02' E 014°30'816.4
2019-Oct-09 18:30N 40°09' E 014°25'816.2
2019-Oct-09 18:00N 40°16' E 014°20'816.1
2019-Oct-09 17:29N 40°23' E 014°15'815.9
2019-Oct-09 16:57N 40°31' E 014°10'613.6
2019-Oct-09 16:30N 40°36' E 014°13'815.0
2019-Oct-09 16:00N 40°40' E 014°21'2 4.5
2019-Oct-09 15:35N 40°39' E 014°23'0 0.5
2019-Oct-09 15:30N 40°39' E 014°23'0 0.7
2019-Oct-09 15:27N 40°39' E 014°23'0 1.3
2019-Oct-09 15:24N 40°39' E 014°23'1 2.2
2019-Oct-09 15:00N 40°38' E 014°23'012.2
2019-Oct-09 14:59N 40°38' E 014°23'128.7
2019-Oct-09 14:57N 40°39' E 014°23'1 1.8
2019-Oct-09 14:30N 40°38' E 014°23'148.2
2019-Oct-09 14:30N 40°39' E 014°23'0 0.7
2019-Oct-09 14:27N 40°39' E 014°23'0 0.9
2019-Oct-09 14:00N 40°38' E 014°23'010.4
2019-Oct-09 13:58N 40°39' E 014°23'0 1.3
2019-Oct-09 13:57N 40°39' E 014°23'1 2.4
2019-Oct-09 13:30N 40°38' E 014°23'151.6
2019-Oct-09 13:29N 40°39' E 014°23'0 1.0
2019-Oct-09 13:27N 40°39' E 014°23'0 0.1
2019-Oct-09 12:58N 40°39' E 014°23'0 1.8
2019-Oct-09 12:57N 40°39' E 014°23'1 1.1
2019-Oct-09 12:30N 40°38' E 014°23'0 9.2
2019-Oct-09 12:27N 40°39' E 014°23'0 0.2
2019-Oct-09 12:13N 40°39' E 014°23'1 5.5
2019-Oct-09 12:00N 40°38' E 014°23'0113.8
2019-Oct-09 12:00N 40°38' E 014°23'110.8
2019-Oct-09 11:57N 40°39' E 014°23'1 1.9
2019-Oct-09 11:30N 40°38' E 014°23'128.0
2019-Oct-09 11:29N 40°39' E 014°23'0 0.3
2019-Oct-09 11:21N 40°39' E 014°23'1 2.0
2019-Oct-09 11:00N 40°38' E 014°23'119.0
2019-Oct-09 10:58N 40°39' E 014°23'0 2.0
2019-Oct-09 10:57N 40°39' E 014°23'1 2.4
2019-Oct-09 10:30N 40°38' E 014°23'122.0
2019-Oct-09 10:27N 40°39' E 014°23'0 0.1
2019-Oct-09 09:58N 40°39' E 014°23'0 1.4
2019-Oct-09 09:57N 40°39' E 014°23'0 0.3
2019-Oct-09 09:43N 40°39' E 014°23'1 4.6
2019-Oct-09 09:30N 40°38' E 014°23'129.4
2019-Oct-09 09:28N 40°39' E 014°23'0 1.7
2019-Oct-09 09:27N 40°39' E 014°23'0 0.6
2019-Oct-09 09:00N 40°38' E 014°23'1102.4
2019-Oct-09 09:00N 40°38' E 014°23'119.9
2019-Oct-09 08:57N 40°39' E 014°23'0 0.3
2019-Oct-09 08:30N 40°39' E 014°23'0 1.8
2019-Oct-09 08:28N 40°39' E 014°23'0 2.3
2019-Oct-09 08:27N 40°39' E 014°23'1 2.3
2019-Oct-09 07:59N 40°38' E 014°23'150.7
2019-Oct-09 07:58N 40°39' E 014°23'0 1.6
2019-Oct-09 07:57N 40°39' E 014°23'1 2.2
2019-Oct-09 07:30N 40°38' E 014°23'1 6.0
2019-Oct-09 07:21N 40°39' E 014°23'022.1
2019-Oct-09 07:20N 40°38' E 014°23'0 1.1
2019-Oct-09 07:00N 40°39' E 014°23'114.6
2019-Oct-09 06:58N 40°38' E 014°23'125.4
2019-Oct-09 06:57N 40°39' E 014°23'1 2.0
2019-Oct-09 06:30N 40°38' E 014°23'0 6.0
2019-Oct-09 06:30N 40°38' E 014°23'119.9
2019-Oct-09 06:27N 40°39' E 014°23'0 0.1
2019-Oct-09 06:00N 40°39' E 014°23'1307.0
2019-Oct-09 06:00N 40°38' E 014°23'118.5
2019-Oct-09 05:57N 40°39' E 014°23'0 0.2
2019-Oct-09 05:30N 40°39' E 014°23'0 2.8
2019-Oct-09 05:29N 40°39' E 014°23'0 0.1
2019-Oct-09 05:21N 40°39' E 014°23'0 0.1
2019-Oct-09 05:00N 40°39' E 014°23'0 3.7
2019-Oct-09 04:59N 40°39' E 014°23'4 8.1
2019-Oct-09 04:30N 40°40' E 014°19'815.5
2019-Oct-09 04:00N 40°39' E 014°09'815.8
2019-Oct-09 03:30N 40°38' E 013°58'815.0
2019-Oct-09 03:00N 40°39' E 013°48'915.6
2019-Oct-09 02:26N 40°46' E 013°40'615.1
2019-Oct-09 02:00N 40°50' E 013°34'714.5
2019-Oct-09 01:30N 40°54' E 013°26'714.2
2019-Oct-09 01:00N 40°57' E 013°17'  
Track history (hours):
 
Tides and Currents Weather Stations Pressure Air Temp Water Temp Dewpoint Dewpoint Depression Visibility Wind Speed Wind Dir Waves Ship Positions

Seven Seas Voyager

Last reported at 2019-Oct-18 17:00 UTC. Time now 2019-Oct-18 23:27 UTC.
Position N 41°00' E 028°54'.

Length 205 m; draft 7 m.

Type: Ship. MMSI: 31151000.

Wind from 050 at 10 knots

Barometer 1018.0 mb
Air temperature 20.0 ° C
Dewpoint 16.9 ° C

Date/timePositionNaut miles runAvg speedWind from/ knotsBaromVisibWave heightAir tempDewpointWater temp
2019-Oct-18 17:00N 41°00' E 028°54'135 5.9 050 / 101018.0 20.016.9
2019-Oct-17 18:14N 40°02' E 026°14'310.5
2019-Oct-17 17:59N 40°01' E 026°11'116 5.7
2019-Oct-16 21:43N 38°15' E 025°09'717.2
2019-Oct-16 21:19N 38°11' E 025°02'2720.1
2019-Oct-16 20:00N 37°54' E 024°36'1111.2 070 / 31017.0 21.014.7
2019-Oct-16 19:00N 37°48' E 024°24'2015.0 070 / 31017.0 21.014.7
2019-Oct-16 17:39N 37°35' E 024°04'316.2
2019-Oct-16 17:29N 37°35' E 024°01'816.2
2019-Oct-16 17:00N 37°37' E 023°51'815.3
2019-Oct-16 16:30N 37°40' E 023°43'816.0
2019-Oct-16 16:00N 37°47' E 023°38'714.9
2019-Oct-16 15:30N 37°55' E 023°37'2 3.0
2019-Oct-16 14:56N 37°56' E 023°38'0 0.0
2019-Oct-16 14:26N 37°56' E 023°38'0 0.0
2019-Oct-16 13:56N 37°56' E 023°38'0 0.0
2019-Oct-16 13:14N 37°56' E 023°38'0 0.0
2019-Oct-16 12:56N 37°56' E 023°38'0 0.0
2019-Oct-16 12:26N 37°56' E 023°38'0 0.0
2019-Oct-16 11:56N 37°56' E 023°38'0 0.0
2019-Oct-16 11:26N 37°56' E 023°38'0 0.0
2019-Oct-16 10:56N 37°56' E 023°38'0 0.0
2019-Oct-16 10:26N 37°56' E 023°38'0 0.0
2019-Oct-16 09:56N 37°56' E 023°38'0 0.0
2019-Oct-16 09:26N 37°56' E 023°38'0 0.0
2019-Oct-16 08:26N 37°56' E 023°38'0 0.0
2019-Oct-16 07:56N 37°56' E 023°38'0 0.0
2019-Oct-16 07:26N 37°56' E 023°38'0 0.0
2019-Oct-16 06:56N 37°56' E 023°38'0 0.0
2019-Oct-16 06:26N 37°56' E 023°38'0 0.0
2019-Oct-16 05:56N 37°56' E 023°38'0 0.0
2019-Oct-16 05:26N 37°56' E 023°38'0 0.0
2019-Oct-16 04:56N 37°56' E 023°38'0 0.0
2019-Oct-16 04:26N 37°56' E 023°38'0 0.0
2019-Oct-16 03:50N 37°56' E 023°38'0 0.0
2019-Oct-16 03:26N 37°56' E 023°38'0 0.0
2019-Oct-16 02:56N 37°56' E 023°38'0 0.0
2019-Oct-16 02:26N 37°56' E 023°38'0 0.0
2019-Oct-16 02:00N 37°56' E 023°38'1 2.2
2019-Oct-16 01:30N 37°56' E 023°36'5 9.8
2019-Oct-16 01:00N 37°51' E 023°39'612.1
2019-Oct-16 00:30N 37°46' E 023°42'611.7
2019-Oct-15 23:59N 37°40' E 023°46'612.0
2019-Oct-15 23:30N 37°38' E 023°52'44 9.8
2019-Oct-15 19:00N 38°06' E 024°36'919.9 330 / 131016.0 20.018.5
2019-Oct-15 18:33N 38°12' E 024°44'112.3
2019-Oct-15 18:29N 38°13' E 024°45'2 4.4
2019-Oct-15 18:00N 38°12' E 024°42'1040.5 090 / 131016.0 19.017.5
2019-Oct-15 17:44N 38°21' E 024°49'312.0
2019-Oct-15 17:30N 38°23' E 024°50'1211.9
2019-Oct-15 16:29N 38°34' E 024°58'911.9
2019-Oct-15 15:43N 38°43' E 025°02'6812.1
2019-Oct-15 10:06N 39°44' E 025°40'312.7
2019-Oct-15 09:54N 39°46' E 025°42'512.1
2019-Oct-15 09:30N 39°50' E 025°44'612.1
2019-Oct-15 09:00N 39°55' E 025°49'1011.8
2019-Oct-15 08:11N 40°00' E 025°60'512.1
2019-Oct-15 07:48N 40°01' E 026°06'7611.2
2019-Oct-15 01:03N 40°42' E 027°29'112.3
2019-Oct-15 00:57N 40°43' E 027°30'612.7
2019-Oct-15 00:30N 40°46' E 027°37'713.5
2019-Oct-15 00:00N 40°47' E 027°45'713.6
2019-Oct-14 23:30N 40°48' E 027°54'713.5
2019-Oct-14 23:00N 40°49' E 028°03'713.3
2019-Oct-14 22:29N 40°50' E 028°12'613.2
2019-Oct-14 22:00N 40°51' E 028°20'712.8
2019-Oct-14 21:30N 40°52' E 028°29'712.5
2019-Oct-14 20:56N 40°53' E 028°38'512.5
2019-Oct-14 20:30N 40°54' E 028°45'9 0.3
2019-Oct-13 18:00N 41°00' E 028°54'0 0.0 360 / 231024.0 21.014.7
2019-Oct-13 17:00N 41°00' E 028°54'4 0.8 360 / 231024.0 21.014.7
2019-Oct-13 12:13N 41°01' E 028°59'5 6.8
2019-Oct-13 11:31N 40°56' E 028°58'016.2
2019-Oct-13 11:30N 40°56' E 028°58'815.8
2019-Oct-13 11:00N 40°52' E 028°49'18213.0
2019-Oct-12 21:00N 39°00' E 025°42'1818.0 360 / 151023.0 20.015.3
2019-Oct-12 20:00N 38°42' E 025°42'68 3.7 360 / 151020.0 21.016.4
2019-Oct-12 01:45N 37°35' E 025°55'415.4
2019-Oct-12 01:30N 37°32' E 025°51'815.8
2019-Oct-12 00:58N 37°27' E 025°42'715.7
2019-Oct-12 00:30N 37°23' E 025°35'815.6
2019-Oct-12 00:00N 37°20' E 025°26'815.1
2019-Oct-11 23:30N 37°17' E 025°17'714.9
2019-Oct-11 23:00N 37°14' E 025°08'815.3
2019-Oct-11 22:30N 37°12' E 024°59'4216.6
2019-Oct-11 20:00N 36°54' E 024°12'1515.4 360 / 181020.0 22.019.0
2019-Oct-11 19:00N 36°42' E 024°00'33215.1 050 / 181019.0 22.019.0
2019-Oct-10 21:00N 37°06' E 017°06'1615.6 140 / 51017.0 23.018.5
2019-Oct-10 20:00N 37°12' E 016°48'1513.6 140 / 31017.0 22.019.0
2019-Oct-10 18:54N 37°15' E 016°30'615.5
2019-Oct-10 18:30N 37°16' E 016°22'918.0
2019-Oct-10 18:00N 37°12' E 016°12'731.6 070 / 51016.0 22.019.0
2019-Oct-10 17:46N 37°18' E 016°08'415.8
2019-Oct-10 17:30N 37°19' E 016°03'714.5
2019-Oct-10 17:01N 37°20' E 015°54'815.9
2019-Oct-10 16:30N 37°22' E 015°44'815.6
2019-Oct-10 15:59N 37°23' E 015°34'815.5
2019-Oct-10 15:29N 37°25' E 015°24'19 1.8
2019-Oct-10 05:00N 37°43' E 015°20'1015.4
2019-Oct-10 04:21N 37°52' E 015°25'616.3
2019-Oct-10 03:59N 37°58' E 015°28'715.5
2019-Oct-10 03:30N 38°04' E 015°32'815.3
2019-Oct-10 03:00N 38°11' E 015°36'612.7
2019-Oct-10 02:30N 38°17' E 015°40'815.5
2019-Oct-10 02:00N 38°24' E 015°36'815.8
2019-Oct-10 01:30N 38°30' E 015°31'815.6
2019-Oct-10 01:00N 38°38' E 015°28'815.4
2019-Oct-10 00:30N 38°45' E 015°23'815.4
2019-Oct-10 00:00N 38°52' E 015°18'815.4
2019-Oct-09 23:30N 38°58' E 015°14'3714.9
2019-Oct-09 21:00N 39°30' E 014°48'1515.1 130 / 171017.0 22.019.0
2019-Oct-09 20:00N 39°42' E 014°36'1522.2 080 / 81017.010.8 22.019.0
2019-Oct-09 19:18N 39°57' E 014°33'929.5
2019-Oct-09 19:00N 40°06' E 014°30'42552.4 060 / 81017.010.8 21.018.0
2019-Oct-09 18:59N 40°02' E 014°30'816.4
2019-Oct-09 18:30N 40°09' E 014°25'816.2
2019-Oct-09 18:00N 40°16' E 014°20'816.1
2019-Oct-09 17:29N 40°23' E 014°15'815.9
2019-Oct-09 16:57N 40°31' E 014°10'613.6
2019-Oct-09 16:30N 40°36' E 014°13'815.0
2019-Oct-09 16:00N 40°40' E 014°21'2 4.5
2019-Oct-09 15:35N 40°39' E 014°23'0 0.5
2019-Oct-09 15:30N 40°39' E 014°23'0 0.7
2019-Oct-09 15:27N 40°39' E 014°23'0 1.3
2019-Oct-09 15:24N 40°39' E 014°23'1 2.2
2019-Oct-09 15:00N 40°38' E 014°23'012.2
2019-Oct-09 14:59N 40°38' E 014°23'128.7
2019-Oct-09 14:57N 40°39' E 014°23'1 1.8
2019-Oct-09 14:30N 40°38' E 014°23'148.2
2019-Oct-09 14:30N 40°39' E 014°23'0 0.7
2019-Oct-09 14:27N 40°39' E 014°23'0 0.9
2019-Oct-09 14:00N 40°38' E 014°23'010.4
2019-Oct-09 13:58N 40°39' E 014°23'0 1.3
2019-Oct-09 13:57N 40°39' E 014°23'1 2.4
2019-Oct-09 13:30N 40°38' E 014°23'151.6
2019-Oct-09 13:29N 40°39' E 014°23'0 1.0
2019-Oct-09 13:27N 40°39' E 014°23'0 0.1
2019-Oct-09 12:58N 40°39' E 014°23'0 1.8
2019-Oct-09 12:57N 40°39' E 014°23'1 1.1
2019-Oct-09 12:30N 40°38' E 014°23'0 9.2
2019-Oct-09 12:27N 40°39' E 014°23'0 0.2
2019-Oct-09 12:13N 40°39' E 014°23'1 5.5
2019-Oct-09 12:00N 40°38' E 014°23'0113.8
2019-Oct-09 12:00N 40°38' E 014°23'110.8
2019-Oct-09 11:57N 40°39' E 014°23'1 1.9
2019-Oct-09 11:30N 40°38' E 014°23'128.0
2019-Oct-09 11:29N 40°39' E 014°23'0 0.3
2019-Oct-09 11:21N 40°39' E 014°23'1 2.0
2019-Oct-09 11:00N 40°38' E 014°23'119.0
2019-Oct-09 10:58N 40°39' E 014°23'0 2.0
2019-Oct-09 10:57N 40°39' E 014°23'1 2.4
2019-Oct-09 10:30N 40°38' E 014°23'122.0
2019-Oct-09 10:27N 40°39' E 014°23'0 0.1
2019-Oct-09 09:58N 40°39' E 014°23'0 1.4
2019-Oct-09 09:57N 40°39' E 014°23'0 0.3
2019-Oct-09 09:43N 40°39' E 014°23'1 4.6
2019-Oct-09 09:30N 40°38' E 014°23'129.4
2019-Oct-09 09:28N 40°39' E 014°23'0 1.7
2019-Oct-09 09:27N 40°39' E 014°23'0 0.6
2019-Oct-09 09:00N 40°38' E 014°23'1102.4
2019-Oct-09 09:00N 40°38' E 014°23'119.9
2019-Oct-09 08:57N 40°39' E 014°23'0 0.3
2019-Oct-09 08:30N 40°39' E 014°23'0 1.8
2019-Oct-09 08:28N 40°39' E 014°23'0 2.3
2019-Oct-09 08:27N 40°39' E 014°23'1 2.3
2019-Oct-09 07:59N 40°38' E 014°23'150.7
2019-Oct-09 07:58N 40°39' E 014°23'0 1.6
2019-Oct-09 07:57N 40°39' E 014°23'1 2.2
2019-Oct-09 07:30N 40°38' E 014°23'1 6.0
2019-Oct-09 07:21N 40°39' E 014°23'022.1
2019-Oct-09 07:20N 40°38' E 014°23'0 1.1
2019-Oct-09 07:00N 40°39' E 014°23'114.6
2019-Oct-09 06:58N 40°38' E 014°23'125.4
2019-Oct-09 06:57N 40°39' E 014°23'1 2.0
2019-Oct-09 06:30N 40°38' E 014°23'0 6.0
2019-Oct-09 06:30N 40°38' E 014°23'119.9
2019-Oct-09 06:27N 40°39' E 014°23'0 0.1
2019-Oct-09 06:00N 40°39' E 014°23'1307.0
2019-Oct-09 06:00N 40°38' E 014°23'118.5
2019-Oct-09 05:57N 40°39' E 014°23'0 0.2
2019-Oct-09 05:30N 40°39' E 014°23'0 2.8
2019-Oct-09 05:29N 40°39' E 014°23'0 0.1
2019-Oct-09 05:21N 40°39' E 014°23'0 0.1
2019-Oct-09 05:00N 40°39' E 014°23'0 3.7
2019-Oct-09 04:59N 40°39' E 014°23'4 8.1
2019-Oct-09 04:30N 40°40' E 014°19'815.5
2019-Oct-09 04:00N 40°39' E 014°09'815.8
2019-Oct-09 03:30N 40°38' E 013°58'815.0
2019-Oct-09 03:00N 40°39' E 013°48'915.6
2019-Oct-09 02:26N 40°46' E 013°40'615.1
2019-Oct-09 02:00N 40°50' E 013°34'714.5
2019-Oct-09 01:30N 40°54' E 013°26'714.2
2019-Oct-09 01:00N 40°57' E 013°17'  

Dump ship's entire track history